Jackson Heights, NY (11372)

9:26 PM EST on December 21, 2014 (GMT -0500)
Middle Village Juniper Valley Park | Change Station
CLOSE
Current Station
Personal Weather Station
Location: Queens, NY
Elevation: 108 ft
Nearby Weather Stations

Elev 108 ft 40.72 °N, 73.89 °W | Updated 2 seconds ago

Overcast
Overcast
34.7 °F
Feels Like 31 °F
N
4.0
Wind Variable Wind from NNE
Gusts 8.0 mph

Today
High -- | Low -- °F
--% Chance of Precip.
Yesterday
High -- | Low -- °F
Precip. -- in
7:16 AM 4:31 PM
New Moon, 0% visible
Pressure 30.34 in
Visibility 10.0 miles
Clouds Mostly Cloudy 1500 ft
Overcast 3500 ft
Windchill 31 °F
Dew Point 32 °F
Humidity 88%
Rainfall 0.00 in
Snow Depth Not available.
UV 0 out of 12
Pollen .10 out of 12
Air Quality Not available.
Flu Activity Not available.
METAR KLGA 220151Z 02007KT 10SM BKN015 OVC035 02/M02 A3034 RMK AO2 SLP273 T00171017

More Conditions Fewer Conditions

Pressure 30.34 in
Visibility 10.0 miles
Clouds Mostly Cloudy 1500 ft
Overcast 3500 ft
Windchill 31 °F
Dew Point 32 °F
Humidity 88%
Rainfall 0.00 in
Snow Depth Not available.
UV 0 out of 12
Pollen .10 out of 12
Air Quality Not available.
Flu Activity Not available.
METAR KLGA 220151Z 02007KT 10SM BKN015 OVC035 02/M02 A3034 RMK AO2 SLP273 T00171017

More Conditions Fewer Conditions

10-Day Weather Forecast

Almanac

Astronomy

Dec. 21, 2014 Rise Set
Actual Time
Civil Twilight
Nautical Twilight
Astronomical Twilight
Moon
Length of Visible Light
Length of Day
Tomorrow will be .
, % of the Moon is Illuminated

Today's Extremes

State Highs State Lows

Community

WunderPhotos

Upload Photos

1,779,525 photos uploaded!

WunderBlogs® & News

Nearby

Air Quality

  Air Quality AQ Index Pollutant
Not available.

Snow Depth

Station Depth Elevation

Earthquake Activity

City Distance Mag. Time & Date
Minimum magnitude displayed is 2.5.

Coastal Water Temperatures

Place Temperature

Nearby Weather Stations